createdAt,value
2019-01-29T00:02:24.564Z,90.30
2019-01-29T00:04:52.199Z,90.30
2019-01-29T00:07:19.768Z,90.40
2019-01-29T00:09:47.743Z,90.50
2019-01-29T00:12:15.341Z,90.10
2019-01-29T00:14:42.905Z,90.10
2019-01-29T00:17:10.517Z,90.20
2019-01-29T00:19:38.088Z,90.30
2019-01-29T00:22:05.650Z,90.10
2019-01-29T00:24:33.246Z,90.10
2019-01-29T00:27:00.820Z,90.20
2019-01-29T00:29:28.417Z,90.20
2019-01-29T00:31:56.032Z,90.00
2019-01-29T00:34:23.569Z,90.20
2019-01-29T00:36:51.171Z,90.30
2019-01-29T00:39:20.075Z,90.40
2019-01-29T00:41:47.649Z,90.30
2019-01-29T00:44:15.216Z,90.40
2019-01-29T00:46:42.788Z,90.40
2019-01-29T00:49:10.379Z,90.30
2019-01-29T00:51:37.955Z,90.20
2019-01-29T00:54:05.568Z,90.20
2019-01-29T00:56:33.156Z,90.00
2019-01-29T00:59:00.730Z,89.60
2019-01-29T01:01:28.320Z,89.30
2019-01-29T01:03:56.660Z,89.20
2019-01-29T01:06:24.262Z,89.20
2019-01-29T01:08:52.596Z,88.50
2019-01-29T01:11:20.459Z,88.50
2019-01-29T01:13:48.055Z,88.50
2019-01-29T01:16:15.627Z,88.70
2019-01-29T01:18:44.024Z,88.90
2019-01-29T01:21:11.596Z,88.90
2019-01-29T01:23:39.169Z,89.20
2019-01-29T01:26:06.770Z,89.30
2019-01-29T01:28:34.335Z,89.20
2019-01-29T01:31:01.938Z,89.30
2019-01-29T01:33:29.512Z,89.50
2019-01-29T01:35:57.081Z,89.50
2019-01-29T01:38:24.675Z,89.60
2019-01-29T01:40:52.248Z,89.70
2019-01-29T01:43:19.889Z,89.60
2019-01-29T01:45:47.423Z,89.60
2019-01-29T01:48:14.986Z,89.60
2019-01-29T01:50:42.592Z,89.30
2019-01-29T01:53:10.164Z,89.20
2019-01-29T01:55:38.562Z,89.40
2019-01-29T01:58:06.131Z,89.30
2019-01-29T02:00:33.707Z,89.50
2019-01-29T02:03:01.311Z,89.50
2019-01-29T02:05:28.883Z,89.80
2019-01-29T02:07:56.497Z,90.00
2019-01-29T02:10:26.779Z,89.60
2019-01-29T02:12:55.114Z,89.30
2019-01-29T02:15:22.745Z,88.70
2019-01-29T02:17:50.856Z,89.00
2019-01-29T02:20:18.464Z,89.20
2019-01-29T02:22:46.800Z,89.10
2019-01-29T02:25:14.374Z,89.10
2019-01-29T02:27:41.965Z,89.00
2019-01-29T02:30:16.004Z,88.10
2019-01-29T02:32:43.618Z,88.00
2019-01-29T02:35:11.206Z,88.00
2019-01-29T02:37:39.555Z,88.80
2019-01-29T02:40:07.150Z,88.80
2019-01-29T02:42:34.738Z,89.10
2019-01-29T02:45:02.370Z,89.70
2019-01-29T02:47:30.707Z,89.20
2019-01-29T02:49:58.280Z,89.20
2019-01-29T02:52:25.866Z,89.20
2019-01-29T02:54:54.203Z,89.50
2019-01-29T02:57:21.810Z,89.50
2019-01-29T02:59:50.149Z,89.70
2019-01-29T03:02:17.725Z,89.60
2019-01-29T03:04:45.326Z,89.70
2019-01-29T03:07:12.893Z,89.70
2019-01-29T03:09:40.810Z,89.60
2019-01-29T03:12:08.380Z,89.60
2019-01-29T03:14:35.966Z,89.70
2019-01-29T03:17:03.558Z,89.50
2019-01-29T03:19:31.130Z,88.60
2019-01-29T03:21:58.767Z,87.90
2019-01-29T03:24:26.310Z,87.80
2019-01-29T03:26:54.660Z,88.00
2019-01-29T03:29:22.256Z,87.90
2019-01-29T03:31:50.607Z,87.00
2019-01-29T03:34:18.222Z,87.00
2019-01-29T03:36:45.798Z,87.00
2019-01-29T03:39:13.385Z,87.40
2019-01-29T03:41:40.986Z,87.60
2019-01-29T03:44:09.343Z,87.70
2019-01-29T03:46:36.980Z,87.70
2019-01-29T03:49:04.558Z,87.20
2019-01-29T03:51:32.129Z,86.80
2019-01-29T03:53:59.730Z,86.30
2019-01-29T03:56:27.297Z,86.40
2019-01-29T03:58:54.906Z,86.70
2019-01-29T04:01:22.476Z,87.50
2019-01-29T04:03:50.053Z,87.10
2019-01-29T04:06:18.421Z,87.00
2019-01-29T04:08:45.998Z,87.00
2019-01-29T04:11:14.371Z,86.60
2019-01-29T04:13:42.710Z,87.00
2019-01-29T04:16:10.284Z,87.00
2019-01-29T04:18:37.887Z,87.30
2019-01-29T04:21:05.471Z,87.60
2019-01-29T04:23:33.080Z,87.90
2019-01-29T04:26:00.668Z,88.30
2019-01-29T04:28:28.242Z,88.00
2019-01-29T04:30:55.842Z,88.10
2019-01-29T04:33:23.413Z,88.20
2019-01-29T04:35:51.027Z,88.30
2019-01-29T04:38:18.599Z,88.50
2019-01-29T04:40:46.175Z,88.70
2019-01-29T04:43:13.777Z,88.80
2019-01-29T04:45:41.353Z,89.00
2019-01-29T04:48:09.735Z,89.00
2019-01-29T04:50:38.078Z,88.80
2019-01-29T04:53:05.657Z,88.80
2019-01-29T04:55:33.255Z,88.80
2019-01-29T04:58:00.829Z,88.90
2019-01-29T05:00:28.481Z,89.00
2019-01-29T05:02:56.838Z,89.10
2019-01-29T05:05:25.197Z,89.20
2019-01-29T05:07:52.799Z,89.20
2019-01-29T05:10:21.132Z,89.50
2019-01-29T05:12:48.777Z,89.40
2019-01-29T05:15:16.320Z,89.80
2019-01-29T05:17:43.885Z,90.10
2019-01-29T05:20:14.005Z,89.80
2019-01-29T05:22:41.594Z,89.80
2019-01-29T05:25:09.201Z,90.00
2019-01-29T05:27:36.781Z,90.00
2019-01-29T05:30:04.347Z,89.90
2019-01-29T05:32:31.960Z,89.80
2019-01-29T05:34:59.531Z,89.70
2019-01-29T05:37:27.920Z,90.00
2019-01-29T05:39:56.256Z,89.50
2019-01-29T05:42:23.840Z,89.40
2019-01-29T05:44:51.439Z,89.50
2019-01-29T05:47:19.027Z,89.50
2019-01-29T05:49:46.662Z,88.80
2019-01-29T05:52:14.234Z,88.90
2019-01-29T05:54:41.817Z,88.80
2019-01-29T05:57:09.413Z,88.90
2019-01-29T05:59:37.044Z,88.80
2019-01-29T06:02:04.607Z,87.90
2019-01-29T06:04:32.178Z,87.50
2019-01-29T06:06:59.780Z,87.80
2019-01-29T06:09:28.190Z,88.50
2019-01-29T06:11:55.744Z,88.50
2019-01-29T06:14:23.651Z,89.00
2019-01-29T06:16:51.233Z,89.70
2019-01-29T06:19:18.817Z,89.30
2019-01-29T06:21:47.190Z,88.30
2019-01-29T06:24:14.771Z,88.20
2019-01-29T06:26:42.400Z,88.50
2019-01-29T06:29:09.969Z,88.80
2019-01-29T06:31:38.315Z,89.70
2019-01-29T06:34:05.918Z,89.70
2019-01-29T06:36:34.262Z,90.50
2019-01-29T06:39:02.275Z,90.50
2019-01-29T06:41:30.665Z,90.60
2019-01-29T06:43:58.249Z,90.60
2019-01-29T06:46:25.861Z,90.20
2019-01-29T06:48:53.911Z,90.30
2019-01-29T06:51:21.853Z,90.40
2019-01-29T06:53:49.443Z,90.40
2019-01-29T06:56:17.036Z,90.40
2019-01-29T06:58:45.402Z,90.70
2019-01-29T07:01:12.991Z,90.70
2019-01-29T07:03:41.720Z,90.40
2019-01-29T07:06:09.299Z,90.40
2019-01-29T07:08:36.883Z,90.40
2019-01-29T07:11:05.300Z,90.30
2019-01-29T07:13:32.868Z,90.30
2019-01-29T07:16:02.952Z,90.20
2019-01-29T07:18:39.801Z,90.30
2019-01-29T07:21:07.424Z,90.30
2019-01-29T07:23:34.999Z,90.30
2019-01-29T07:26:02.574Z,90.40
2019-01-29T07:28:30.239Z,90.40
2019-01-29T07:30:57.857Z,90.40
2019-01-29T07:33:25.403Z,90.30
2019-01-29T07:35:53.802Z,90.00
2019-01-29T07:38:21.379Z,90.00
2019-01-29T07:40:48.962Z,90.00
2019-01-29T07:43:16.939Z,90.00
2019-01-29T07:45:44.519Z,90.10
2019-01-29T07:48:12.095Z,90.50
2019-01-29T07:50:40.489Z,90.20
2019-01-29T07:53:08.833Z,90.30
2019-01-29T07:55:36.399Z,90.20
2019-01-29T07:58:04.024Z,90.20
2019-01-29T08:00:31.601Z,90.20
2019-01-29T08:02:59.185Z,90.30
2019-01-29T08:05:26.815Z,90.00
2019-01-29T08:07:54.405Z,89.10
2019-01-29T08:10:21.981Z,87.90
2019-01-29T08:12:50.391Z,88.00
2019-01-29T08:15:17.977Z,87.60
2019-01-29T08:17:45.555Z,87.90
2019-01-29T08:20:14.258Z,88.10
2019-01-29T08:22:41.850Z,89.10
2019-01-29T08:25:09.418Z,88.50
2019-01-29T08:27:37.060Z,88.60
2019-01-29T08:30:13.312Z,88.40
2019-01-29T08:32:40.927Z,89.10
2019-01-29T08:35:08.507Z,88.40
2019-01-29T08:37:36.079Z,88.80
2019-01-29T08:40:03.686Z,88.00
2019-01-29T08:42:31.262Z,88.00
2019-01-29T08:44:58.858Z,87.70
2019-01-29T08:47:26.893Z,87.50
2019-01-29T08:49:54.445Z,87.90
2019-01-29T08:52:22.021Z,88.00
2019-01-29T08:54:50.050Z,88.40
2019-01-29T08:57:17.632Z,87.50
2019-01-29T08:59:45.211Z,87.30
2019-01-29T09:02:12.828Z,87.20
2019-01-29T09:04:40.401Z,86.60
2019-01-29T09:07:07.971Z,86.50
2019-01-29T09:09:36.366Z,85.40
2019-01-29T09:12:04.719Z,85.40
2019-01-29T09:14:32.283Z,85.30
2019-01-29T09:16:59.955Z,85.40
2019-01-29T09:19:28.297Z,87.00
2019-01-29T09:21:55.860Z,86.20
2019-01-29T09:24:23.486Z,86.40
2019-01-29T09:26:51.059Z,86.60
2019-01-29T09:29:18.629Z,86.80
2019-01-29T09:31:46.760Z,87.00
2019-01-29T09:34:15.102Z,86.50
2019-01-29T09:36:42.669Z,87.20
2019-01-29T09:39:10.327Z,87.90
2019-01-29T09:41:37.920Z,87.30
2019-01-29T09:44:06.266Z,87.70
2019-01-29T09:46:34.250Z,87.40
2019-01-29T09:49:01.826Z,87.60
2019-01-29T09:51:29.415Z,88.10
2019-01-29T09:53:57.796Z,87.80
2019-01-29T09:56:25.469Z,87.80
2019-01-29T09:58:52.960Z,88.00
2019-01-29T10:01:20.605Z,87.80
2019-01-29T10:03:48.177Z,87.80
2019-01-29T10:06:15.766Z,87.80
2019-01-29T10:08:43.394Z,87.60
2019-01-29T10:11:10.971Z,87.50
2019-01-29T10:13:38.561Z,87.30
2019-01-29T10:16:06.955Z,87.30
2019-01-29T10:18:35.308Z,87.10
2019-01-29T10:21:02.869Z,87.10
2019-01-29T10:23:30.497Z,87.00
2019-01-29T10:25:58.087Z,87.10
2019-01-29T10:28:25.657Z,86.50
2019-01-29T10:30:54.111Z,86.30
2019-01-29T10:33:21.833Z,86.20
2019-01-29T10:35:50.179Z,86.20
2019-01-29T10:38:18.568Z,86.10
2019-01-29T10:40:46.153Z,85.70
2019-01-29T10:43:14.485Z,84.50
2019-01-29T10:45:42.600Z,84.40
2019-01-29T10:48:10.180Z,83.70
2019-01-29T10:50:37.756Z,84.50
2019-01-29T10:53:05.403Z,83.60
2019-01-29T10:55:33.074Z,83.30
2019-01-29T10:58:00.597Z,83.30
2019-01-29T11:00:34.221Z,82.80
2019-01-29T11:03:01.794Z,83.00
2019-01-29T11:05:29.365Z,83.00
2019-01-29T11:07:56.974Z,83.00
2019-01-29T11:10:24.581Z,82.50
2019-01-29T11:12:52.121Z,82.20
2019-01-29T11:15:25.208Z,82.00
2019-01-29T11:17:53.573Z,81.90
2019-01-29T11:20:21.190Z,81.90
2019-01-29T11:22:48.795Z,81.80
2019-01-29T11:25:16.325Z,81.70
2019-01-29T11:27:43.908Z,81.60
2019-01-29T11:30:11.653Z,80.90
2019-01-29T11:32:39.211Z,80.90
2019-01-29T11:35:06.801Z,80.20
2019-01-29T11:37:35.225Z,80.10
2019-01-29T11:40:02.811Z,79.80
2019-01-29T11:42:30.381Z,79.90
2019-01-29T11:44:57.997Z,80.00
2019-01-29T11:47:26.345Z,79.50
2019-01-29T11:49:53.917Z,79.50
2019-01-29T11:52:22.082Z,79.50
2019-01-29T11:54:50.492Z,79.20
2019-01-29T11:57:17.243Z,79.00
2019-01-29T11:59:45.637Z,78.10
2019-01-29T12:02:13.235Z,78.10
2019-01-29T12:04:40.816Z,77.90
2019-01-29T12:07:08.440Z,77.80
2019-01-29T12:09:36.015Z,77.90
2019-01-29T12:12:03.597Z,78.20
2019-01-29T12:14:31.221Z,78.40
2019-01-29T12:16:59.105Z,78.30
2019-01-29T12:19:26.686Z,78.80
2019-01-29T12:21:55.092Z,77.80
2019-01-29T12:24:22.664Z,77.60
2019-01-29T12:26:51.004Z,76.50
2019-01-29T12:29:18.681Z,76.50
2019-01-29T12:31:46.266Z,76.20
2019-01-29T12:34:13.836Z,76.10
2019-01-29T12:36:41.523Z,76.40
2019-01-29T12:39:09.099Z,76.90
2019-01-29T12:41:36.671Z,77.30
2019-01-29T12:44:04.531Z,77.40
2019-01-29T12:46:32.141Z,77.40
2019-01-29T12:48:59.718Z,77.30
2019-01-29T12:51:27.350Z,76.90
2019-01-29T12:53:54.917Z,76.90
2019-01-29T12:56:22.495Z,76.90
2019-01-29T12:58:50.859Z,77.10
2019-01-29T13:01:18.430Z,77.10
2019-01-29T13:03:46.823Z,76.60
2019-01-29T13:06:14.394Z,76.50
2019-01-29T13:08:41.963Z,76.70
2019-01-29T13:11:09.565Z,77.00
2019-01-29T13:13:37.137Z,77.40
2019-01-29T13:16:05.608Z,77.30
2019-01-29T13:18:33.179Z,77.60
2019-01-29T13:21:00.754Z,77.50
2019-01-29T13:23:28.386Z,77.90
2019-01-29T13:25:55.976Z,78.60
2019-01-29T13:28:24.130Z,79.10
2019-01-29T13:30:51.720Z,79.10
2019-01-29T13:33:20.109Z,78.40
2019-01-29T13:35:47.692Z,78.30
2019-01-29T13:38:15.266Z,78.30
2019-01-29T13:40:42.930Z,78.60
2019-01-29T13:43:10.504Z,78.60
2019-01-29T13:45:38.082Z,78.70
2019-01-29T13:48:05.696Z,78.80
2019-01-29T13:53:11.756Z,79.00
2019-01-29T13:55:39.324Z,78.90
2019-01-29T13:58:06.943Z,78.80
2019-01-29T14:00:34.502Z,78.80
2019-01-29T14:03:02.065Z,78.70
2019-01-29T14:05:29.687Z,78.40
2019-01-29T14:07:57.263Z,78.30
2019-01-29T14:10:24.830Z,78.40
2019-01-29T14:12:52.452Z,78.30
2019-01-29T14:15:22.962Z,78.50
2019-01-29T14:17:50.617Z,78.90
2019-01-29T14:20:18.189Z,79.10
2019-01-29T14:22:45.752Z,78.50
2019-01-29T14:25:14.402Z,78.00
2019-01-29T14:27:42.916Z,78.50
2019-01-29T14:30:19.364Z,78.30
2019-01-29T14:32:46.909Z,78.40
2019-01-29T14:35:14.485Z,78.90
2019-01-29T14:38:00.588Z,79.10
2019-01-29T14:40:28.183Z,79.40
2019-01-29T14:42:56.562Z,79.60
2019-01-29T14:45:24.250Z,79.60
2019-01-29T14:47:52.577Z,79.60
2019-01-29T14:50:20.162Z,79.60
2019-01-29T14:52:47.828Z,79.60
2019-01-29T14:55:15.418Z,80.10
2019-01-29T14:57:43.843Z,80.00
2019-01-29T15:00:20.058Z,80.00
2019-01-29T15:02:47.628Z,79.90
2019-01-29T15:05:15.263Z,79.80
2019-01-29T15:07:42.812Z,79.40
2019-01-29T15:10:10.381Z,79.30
2019-01-29T15:12:38.421Z,78.90
2019-01-29T15:15:05.996Z,79.20
2019-01-29T15:17:33.573Z,78.90
2019-01-29T15:20:02.440Z,78.40
2019-01-29T15:22:30.013Z,78.40
2019-01-29T15:24:57.585Z,78.50
2019-01-29T15:27:25.259Z,78.30
2019-01-29T15:29:52.846Z,77.80
2019-01-29T15:32:20.414Z,77.20
2019-01-29T15:34:48.078Z,77.30
2019-01-29T15:37:15.628Z,77.50
2019-01-29T15:39:43.229Z,77.50
2019-01-29T15:42:10.842Z,77.20
2019-01-29T15:44:38.413Z,77.00
2019-01-29T15:47:06.072Z,77.40
2019-01-29T15:49:33.673Z,77.00
2019-01-29T15:52:01.247Z,76.90
2019-01-29T15:54:28.821Z,76.90
2019-01-29T15:56:57.264Z,77.00
2019-01-29T15:59:24.836Z,77.30
2019-01-29T16:01:52.461Z,77.60
2019-01-29T16:04:20.045Z,78.00
2019-01-29T16:06:47.622Z,78.10
2019-01-29T16:09:15.501Z,78.40
2019-01-29T16:11:43.080Z,78.40
2019-01-29T16:14:10.669Z,78.70
2019-01-29T16:16:39.520Z,79.50
2019-01-29T16:19:07.109Z,79.40
2019-01-29T16:21:35.484Z,79.50
2019-01-29T16:24:03.864Z,78.90
2019-01-29T16:26:31.790Z,78.80
2019-01-29T16:28:59.401Z,78.80
2019-01-29T16:31:26.983Z,79.00
2019-01-29T16:33:54.554Z,79.00
2019-01-29T16:36:22.218Z,79.30
2019-01-29T16:38:49.793Z,79.70
2019-01-29T16:41:17.403Z,80.00
2019-01-29T16:43:45.056Z,80.00
2019-01-29T16:46:12.627Z,80.10
2019-01-29T16:48:40.973Z,80.60
2019-01-29T16:51:08.853Z,80.60
2019-01-29T16:53:36.429Z,80.50
2019-01-29T16:56:04.001Z,80.40
2019-01-29T16:58:31.685Z,80.50
2019-01-29T17:00:59.263Z,80.60
2019-01-29T17:03:26.839Z,80.70
2019-01-29T17:05:54.433Z,80.90
2019-01-29T17:08:22.005Z,80.90
2019-01-29T17:10:49.651Z,80.80
2019-01-29T17:13:17.239Z,80.80
2019-01-29T17:15:44.794Z,80.80
2019-01-29T17:18:14.146Z,80.70
2019-01-29T17:20:44.519Z,80.90
2019-01-29T17:23:12.090Z,80.90
2019-01-29T17:25:39.689Z,81.10
2019-01-29T17:28:07.268Z,81.20
2019-01-29T17:30:35.861Z,81.10
2019-01-29T17:33:03.437Z,81.00
2019-01-29T17:35:31.004Z,81.20
2019-01-29T17:37:58.618Z,81.40
2019-01-29T17:40:26.195Z,81.70
2019-01-29T17:42:54.253Z,81.20
2019-01-29T17:45:39.836Z,81.20
2019-01-29T17:48:07.451Z,81.30
2019-01-29T17:50:35.050Z,81.50
2019-01-29T17:53:02.632Z,81.40
2019-01-29T17:55:30.256Z,81.30
2019-01-29T17:57:57.835Z,81.20
2019-01-29T18:00:25.511Z,80.70
2019-01-29T18:02:53.080Z,80.70
2019-01-29T18:05:20.656Z,80.70
2019-01-29T18:07:48.254Z,80.80
2019-01-29T18:10:15.850Z,80.80
2019-01-29T18:12:43.493Z,80.80
2019-01-29T18:15:13.758Z,81.00
2019-01-29T18:17:41.340Z,81.20
2019-01-29T18:20:08.938Z,81.10
2019-01-29T18:22:36.508Z,81.10
2019-01-29T18:25:04.166Z,81.20
2019-01-29T18:27:31.723Z,81.30
2019-01-29T18:29:59.303Z,81.30
2019-01-29T18:32:27.052Z,81.50
2019-01-29T18:34:54.507Z,80.90
2019-01-29T18:37:23.371Z,80.90
2019-01-29T18:39:50.953Z,80.80
2019-01-29T18:42:19.298Z,81.20
2019-01-29T18:44:47.206Z,81.20
2019-01-29T18:47:14.790Z,80.80
2019-01-29T18:49:42.670Z,80.80
2019-01-29T18:52:10.296Z,81.10
2019-01-29T18:54:40.566Z,81.30
2019-01-29T18:57:08.168Z,81.60
2019-01-29T18:59:35.746Z,81.80
2019-01-29T19:02:03.420Z,81.90
2019-01-29T19:04:31.005Z,82.00
2019-01-29T19:06:58.580Z,82.10
2019-01-29T19:09:26.208Z,82.00
2019-01-29T19:11:53.894Z,81.80
2019-01-29T19:14:21.434Z,81.50
2019-01-29T19:16:49.020Z,81.50
2019-01-29T19:19:16.614Z,81.80
2019-01-29T19:21:44.209Z,81.80
2019-01-29T19:24:11.787Z,81.90
2019-01-29T19:26:39.417Z,82.10
2019-01-29T19:29:07.003Z,81.10
2019-01-29T19:31:34.622Z,81.10
2019-01-29T19:34:02.226Z,81.20
2019-01-29T19:36:29.839Z,81.20
2019-01-29T19:38:57.429Z,81.40
2019-01-29T19:41:25.016Z,81.60
2019-01-29T19:43:52.607Z,81.80
2019-01-29T19:46:20.204Z,81.80
2019-01-29T19:48:47.802Z,82.00
2019-01-29T19:51:15.427Z,82.10
2019-01-29T19:53:43.010Z,82.20
2019-01-29T19:56:10.594Z,82.30
2019-01-29T19:58:38.188Z,82.30
2019-01-29T20:01:05.762Z,82.30
2019-01-29T20:03:33.644Z,82.30
2019-01-29T20:06:01.218Z,82.50
2019-01-29T20:08:28.816Z,82.70
2019-01-29T20:10:56.445Z,82.80
2019-01-29T20:13:24.030Z,82.90
2019-01-29T20:15:52.971Z,82.90
2019-01-29T20:18:20.650Z,83.10
2019-01-29T20:20:48.224Z,83.20
2019-01-29T20:23:15.832Z,83.50
2019-01-29T20:25:43.410Z,83.60
2019-01-29T20:28:11.038Z,83.60
2019-01-29T20:30:38.613Z,83.40
2019-01-29T20:33:06.229Z,83.40
2019-01-29T20:35:33.824Z,83.60
2019-01-29T20:38:01.693Z,83.60
2019-01-29T20:40:29.371Z,83.50
2019-01-29T20:42:56.933Z,83.60
2019-01-29T20:45:24.515Z,83.80
2019-01-29T20:47:52.705Z,84.10
2019-01-29T20:50:22.646Z,84.00
2019-01-29T20:52:51.046Z,84.50
2019-01-29T20:55:18.877Z,84.50
2019-01-29T20:57:46.448Z,84.70
2019-01-29T21:00:33.229Z,85.30
2019-01-29T21:03:00.810Z,85.60
2019-01-29T21:05:29.068Z,84.90
2019-01-29T21:07:56.640Z,85.00
2019-01-29T21:10:24.343Z,84.80
2019-01-29T21:12:51.942Z,84.80
2019-01-29T21:15:25.490Z,84.80
2019-01-29T21:17:53.906Z,84.10
2019-01-29T21:20:22.212Z,84.10
2019-01-29T21:22:49.805Z,84.00
2019-01-29T21:25:17.394Z,84.00
2019-01-29T21:27:44.971Z,84.00
2019-01-29T21:30:20.844Z,83.60
2019-01-29T21:32:48.376Z,83.50
2019-01-29T21:35:15.943Z,83.50
2019-01-29T21:37:43.544Z,83.40
2019-01-29T21:40:11.128Z,83.50
2019-01-29T21:42:39.521Z,83.80
2019-01-29T21:45:10.526Z,82.80
2019-01-29T21:47:38.102Z,82.80
2019-01-29T21:50:14.246Z,82.40
2019-01-29T21:52:41.838Z,82.30
2019-01-29T21:55:10.228Z,81.10
2019-01-29T21:57:38.569Z,81.50
2019-01-29T22:00:11.827Z,81.40
2019-01-29T22:02:39.426Z,81.70
2019-01-29T22:05:09.745Z,82.00
2019-01-29T22:07:37.412Z,82.20
2019-01-29T22:10:04.988Z,82.20
2019-01-29T22:12:32.557Z,81.90
2019-01-29T22:15:00.315Z,81.70
2019-01-29T22:17:27.739Z,81.20
2019-01-29T22:19:55.367Z,81.10
2019-01-29T22:22:23.707Z,81.20
2019-01-29T22:24:51.272Z,81.20
2019-01-29T22:27:18.878Z,81.30
2019-01-29T22:29:47.210Z,81.60
2019-01-29T22:32:15.178Z,81.50
2019-01-29T22:34:42.750Z,81.40
2019-01-29T22:37:10.320Z,81.60
2019-01-29T22:39:37.915Z,81.70
2019-01-29T22:42:05.491Z,81.90
2019-01-29T22:44:33.096Z,81.80
2019-01-29T22:47:00.685Z,81.90
2019-01-29T22:49:29.120Z,82.00
2019-01-29T22:51:56.716Z,82.00
2019-01-29T22:54:25.058Z,82.10
2019-01-29T22:56:52.668Z,82.10
2019-01-29T22:59:21.011Z,82.00
2019-01-29T23:01:48.584Z,82.10
2019-01-29T23:04:16.179Z,81.90
2019-01-29T23:06:43.755Z,81.60
2019-01-29T23:09:11.426Z,81.40
2019-01-29T23:11:38.905Z,81.20
2019-01-29T23:14:06.509Z,81.40
2019-01-29T23:16:35.659Z,81.00
2019-01-29T23:19:03.224Z,81.00
2019-01-29T23:21:30.862Z,80.80
2019-01-29T23:23:58.752Z,80.70
2019-01-29T23:26:26.386Z,80.60
2019-01-29T23:28:53.955Z,80.50
2019-01-29T23:31:21.517Z,80.40
2019-01-29T23:33:49.177Z,80.20
2019-01-29T23:36:16.678Z,80.40
2019-01-29T23:38:44.276Z,80.40
2019-01-29T23:41:12.608Z,80.10
2019-01-29T23:43:40.181Z,80.10
2019-01-29T23:46:09.055Z,80.10
2019-01-29T23:48:36.618Z,80.00
2019-01-29T23:51:04.222Z,80.10
2019-01-29T23:53:31.779Z,79.20
2019-01-29T23:56:00.118Z,78.90
2019-01-29T23:58:27.710Z,78.90
